Time;durP1;ratioP1;P1;durP2;ratioP2;P2;SDS_P1;SDS_P2;PMS_P1;PMS_P2;Temp;Humidity;BMP_temperature;BMP_pressure;BME280_temperature;BME280_humidity;BME280_pressure;Samples;Min_cycle;Max_cycle;Signal;HPM_P1;HPM_P2
2022/05/18 00:00:55;;;;;;;1.50;1.35;;;;;;;16.95;63.56;98982.16;4137530;28;20232;-53
2022/05/18 00:03:04;;;;;;;1.48;1.35;;;;;;;16.81;64.30;98975.56;4131052;28;20251;-53
2022/05/18 00:05:07;;;;;;;2.03;1.50;;;;;;;16.60;65.15;98982.22;4120321;28;20206;-53
2022/05/18 00:07:08;;;;;;;1.90;1.30;;;;;;;16.63;64.79;98992.69;4135283;28;20214;-54
2022/05/18 00:09:10;;;;;;;1.38;1.08;;;;;;;16.70;64.30;98996.00;4134341;28;20209;-53
2022/05/18 00:11:14;;;;;;;1.80;1.27;;;;;;;16.69;64.76;98999.88;4132332;28;20737;-54
2022/05/18 00:13:17;;;;;;;1.65;1.30;;;;;;;16.68;64.25;98992.72;4132035;28;20209;-53
2022/05/18 00:15:22;;;;;;;1.52;1.40;;;;;;;16.65;64.46;99004.34;4133498;28;20226;-53
2022/05/18 00:17:25;;;;;;;1.23;1.10;;;;;;;16.63;64.26;99001.00;4133844;28;20720;-53
2022/05/18 00:19:26;;;;;;;1.20;1.08;;;;;;;16.62;64.29;99004.88;4138445;28;20808;-53
2022/05/18 00:21:30;;;;;;;1.30;1.10;;;;;;;16.64;64.49;99002.66;4131691;28;20237;-53
2022/05/18 00:23:33;;;;;;;1.20;1.10;;;;;;;16.60;64.77;98992.44;4130850;28;20558;-53
2022/05/18 00:25:37;;;;;;;1.67;1.40;;;;;;;16.56;64.45;98994.91;4130174;28;20253;-53
2022/05/18 00:27:39;;;;;;;1.23;1.15;;;;;;;16.51;64.54;98996.88;4138156;28;20652;-53
2022/05/18 00:29:41;;;;;;;1.42;1.35;;;;;;;16.48;64.76;99001.00;4132038;28;20215;-53
2022/05/18 00:31:46;;;;;;;1.85;1.33;;;;;;;16.48;64.47;99002.94;4138516;28;20253;-54
2022/05/18 00:33:48;;;;;;;2.13;1.92;;;;;;;16.49;65.07;99010.94;4117981;28;20716;-54
2022/05/18 00:35:50;;;;;;;2.67;1.67;;;;;;;16.52;65.10;99004.88;4135681;28;20284;-53
2022/05/18 00:37:52;;;;;;;1.65;1.30;;;;;;;16.50;64.67;99001.53;4140185;28;20209;-53
2022/05/18 00:39:53;;;;;;;1.45;1.20;;;;;;;16.47;64.77;99009.56;4138653;28;20201;-54
2022/05/18 00:41:55;;;;;;;1.52;1.10;;;;;;;16.46;64.76;99005.97;4140624;28;20229;-54
2022/05/18 00:43:57;;;;;;;2.28;1.75;;;;;;;16.47;64.81;99007.63;4143397;28;20300;-54
2022/05/18 00:46:01;;;;;;;1.30;1.20;;;;;;;16.48;64.80;99006.53;4140020;28;20198;-54
2022/05/18 00:48:05;;;;;;;1.30;1.20;;;;;;;16.49;64.70;98999.09;4125012;28;20220;-54
2022/05/18 00:50:11;;;;;;;1.48;1.05;;;;;;;16.47;64.60;99001.28;4138928;28;20209;-54
2022/05/18 00:52:14;;;;;;;1.40;1.30;;;;;;;16.42;64.43;98993.81;4152807;28;21001;-54
2022/05/18 00:54:25;;;;;;;2.15;1.27;;;;;;;16.32;65.11;98999.31;4140712;28;20225;-54
2022/05/18 00:56:32;;;;;;;0.77;0.77;;;;;;;16.25;64.84;98993.25;4135501;28;20198;-54
2022/05/18 00:58:53;;;;;;;1.50;1.40;;;;;;;16.21;65.19;99005.09;4135501;28;20228;-54
2022/05/18 01:00:55;;;;;;;2.67;1.25;;;;;;;16.20;65.35;99000.66;4134047;28;20588;-54
2022/05/18 01:03:01;;;;;;;1.17;1.05;;;;;;;16.22;65.44;99002.06;4139338;28;20681;-54
2022/05/18 01:05:05;;;;;;;1.35;1.15;;;;;;;16.28;65.33;98994.59;4136935;28;20208;-54
2022/05/18 01:07:14;;;;;;;1.77;1.02;;;;;;;16.30;65.41;99001.50;4138360;28;20268;-54
2022/05/18 01:09:23;;;;;;;1.50;1.25;;;;;;;16.31;65.11;99010.63;4138140;28;20217;-54
2022/05/18 01:11:25;;;;;;;1.30;1.20;;;;;;;16.23;64.93;99000.94;4140755;28;20711;-54
2022/05/18 01:13:27;;;;;;;0.93;0.93;;;;;;;16.23;65.04;99009.22;4137759;28;20201;-54
2022/05/18 01:15:28;;;;;;;1.60;1.50;;;;;;;16.22;65.07;99010.34;4137114;28;20505;-54
2022/05/18 01:17:32;;;;;;;0.95;0.95;;;;;;;16.18;65.03;99012.00;4127324;28;20217;-53
2022/05/18 01:19:38;;;;;;;1.33;1.23;;;;;;;16.18;65.20;99014.78;4125180;28;20210;-54
2022/05/18 01:21:45;;;;;;;0.98;0.95;;;;;;;16.13;65.02;99012.00;4153350;28;20226;-54
2022/05/18 01:24:16;;;;;;;1.10;1.00;;;;;;;16.01;65.62;99016.94;4141602;28;20196;-54
2022/05/18 01:26:45;;;;;;;1.23;1.13;;;;;;;15.98;65.83;99023.03;4131882;28;20202;-53
2022/05/18 01:28:52;;;;;;;1.15;1.08;;;;;;;15.97;65.87;99017.75;4131919;28;20243;-53
2022/05/18 01:30:54;;;;;;;1.40;1.30;;;;;;;15.96;65.97;99021.63;4135323;28;20221;-54
2022/05/18 01:32:57;;;;;;;1.40;1.30;;;;;;;15.94;65.87;99024.66;4137906;28;20210;-54
2022/05/18 01:34:59;;;;;;;1.10;1.00;;;;;;;15.92;65.89;99031.53;4141766;28;20256;-54
2022/05/18 01:37:02;;;;;;;3.53;1.30;;;;;;;15.92;65.94;99037.06;4137789;28;20271;-53
2022/05/18 01:39:06;;;;;;;1.42;1.10;;;;;;;15.88;65.99;99034.00;4140994;28;20327;-54
2022/05/18 01:41:17;;;;;;;1.75;1.65;;;;;;;15.85;65.97;99031.81;4138609;28;20604;-53
2022/05/18 01:43:33;;;;;;;1.30;1.10;;;;;;;15.84;66.36;99040.34;4134727;28;20245;-54
2022/05/18 01:45:35;;;;;;;1.08;1.08;;;;;;;15.78;66.48;99031.25;4137829;28;20205;-53
2022/05/18 01:47:38;;;;;;;3.80;1.80;;;;;;;15.77;66.43;99029.56;4136129;28;20205;-53
2022/05/18 01:49:41;;;;;;;1.80;1.48;;;;;;;15.72;66.83;99032.31;4140138;28;20267;-54
2022/05/18 01:51:45;;;;;;;4.50;1.30;;;;;;;15.72;66.62;99029.56;4138846;28;20717;-54
2022/05/18 01:53:46;;;;;;;1.75;1.30;;;;;;;15.72;66.67;99032.31;4136532;28;20209;-53
2022/05/18 01:55:48;;;;;;;1.30;1.20;;;;;;;15.65;67.04;99031.75;4139231;28;20650;-54
2022/05/18 01:57:50;;;;;;;1.00;0.93;;;;;;;15.65;67.15;99031.75;4137964;28;20198;-53
2022/05/18 01:59:52;;;;;;;1.40;1.30;;;;;;;15.56;67.52;99027.81;4136259;28;20210;-54
2022/05/18 02:01:53;;;;;;;1.30;1.20;;;;;;;15.57;67.23;99026.72;4138332;28;20308;-54
2022/05/18 02:03:55;;;;;;;1.33;1.20;;;;;;;15.58;67.17;99036.69;4136001;28;20206;-54
2022/05/18 02:05:57;;;;;;;1.73;1.63;;;;;;;15.57;66.96;99028.66;4134340;28;20279;-53
2022/05/18 02:07:59;;;;;;;1.48;1.35;;;;;;;15.58;66.93;99028.41;4135601;28;20213;-53
2022/05/18 02:10:01;;;;;;;1.40;1.35;;;;;;;15.58;66.40;99028.41;4136063;28;20739;-53
2022/05/18 02:12:04;;;;;;;2.80;1.15;;;;;;;15.57;66.58;99035.00;4137751;28;20610;-54
2022/05/18 02:14:06;;;;;;;1.38;1.00;;;;;;;15.57;66.57;99032.22;4151257;28;20267;-54
2022/05/18 02:16:09;;;;;;;1.33;1.23;;;;;;;15.55;66.57;99030.88;4141461;28;20221;-53
2022/05/18 02:18:10;;;;;;;2.35;1.23;;;;;;;15.53;66.97;99028.38;4135640;28;20205;-54
2022/05/18 02:20:13;;;;;;;0.98;0.90;;;;;;;15.55;66.79;99030.88;4136172;28;20217;-53
2022/05/18 02:22:14;;;;;;;1.02;1.02;;;;;;;15.53;66.41;99028.38;4138814;28;20716;-54
2022/05/18 02:24:17;;;;;;;1.42;1.17;;;;;;;15.50;66.14;99031.66;4140163;28;20272;-54
2022/05/18 02:26:19;;;;;;;1.38;1.00;;;;;;;15.53;66.41;99025.63;4143834;28;20679;-54
2022/05/18 02:28:21;;;;;;;1.05;1.05;;;;;;;15.51;66.28;99029.75;4135252;28;20826;-54
2022/05/18 02:30:26;;;;;;;1.30;1.20;;;;;;;15.49;66.22;99034.69;4135757;28;20209;-54
2022/05/18 02:32:28;;;;;;;1.27;1.13;;;;;;;15.41;66.37;99036.03;4134524;28;20233;-53
2022/05/18 02:34:30;;;;;;;1.08;1.00;;;;;;;15.41;66.43;99030.53;4135461;28;20649;-54
2022/05/18 02:36:31;;;;;;;1.17;1.13;;;;;;;15.37;66.59;99034.91;4137098;28;20237;-53
2022/05/18 02:38:36;;;;;;;1.20;1.10;;;;;;;15.30;66.90;99028.75;4119610;28;20206;-53
2022/05/18 02:40:37;;;;;;;2.38;1.65;;;;;;;15.21;67.10;99038.66;4136287;28;20210;-53
2022/05/18 02:42:40;;;;;;;1.92;1.30;;;;;;;15.18;67.23;99038.34;4137278;28;20213;-54
2022/05/18 02:44:41;;;;;;;1.20;1.05;;;;;;;15.19;67.69;99037.25;4138005;28;20217;-53
2022/05/18 02:46:43;;;;;;;1.42;1.33;;;;;;;15.12;67.31;99048.53;4136406;28;20699;-54
2022/05/18 02:48:46;;;;;;;1.90;1.35;;;;;;;15.07;67.75;99042.97;4133485;28;20213;-56
2022/05/18 02:50:47;;;;;;;1.15;1.10;;;;;;;15.14;67.41;99051.00;4135031;28;20225;-56
2022/05/18 02:52:49;;;;;;;1.73;1.63;;;;;;;15.05;67.69;99042.44;4134250;28;20214;-55
2022/05/18 02:57:11;;;;;;;2.30;1.40;;;;;;;15.00;67.99;99045.13;4132929;28;20244;-56
2022/05/18 02:59:13;;;;;;;2.28;2.08;;;;;;;14.96;68.31;99049.50;4140671;28;20228;-56
2022/05/18 03:01:26;;;;;;;1.50;1.30;;;;;;;14.96;68.10;99049.50;4134690;28;20225;-56
2022/05/18 03:03:28;;;;;;;1.25;1.15;;;;;;;14.94;67.81;99043.44;4139825;28;20208;-56
2022/05/18 03:05:30;;;;;;;1.77;1.67;;;;;;;14.80;68.74;99047.75;4135944;28;20209;-56
2022/05/18 03:07:32;;;;;;;2.42;2.03;;;;;;;14.87;67.77;99051.09;4136098;28;20278;-56
2022/05/18 03:09:34;;;;;;;1.55;1.30;;;;;;;14.90;68.15;99056.06;4141753;28;20221;-56
2022/05/18 03:11:35;;;;;;;1.23;1.13;;;;;;;14.85;67.97;99052.47;4135490;28;20316;-55
2022/05/18 03:13:37;;;;;;;2.08;1.00;;;;;;;14.87;67.88;99059.38;4132200;28;20569;-55
2022/05/18 03:15:39;;;;;;;1.40;1.30;;;;;;;14.85;68.06;99061.56;4152742;28;20610;-55
2022/05/18 03:17:41;;;;;;;1.58;1.02;;;;;;;14.79;67.87;99073.66;4141574;28;20619;-56
2022/05/18 03:19:43;;;;;;;1.00;1.00;;;;;;;14.79;68.02;99059.88;4151460;28;20558;-55
2022/05/18 03:24:05;;;;;;;1.95;1.10;;;;;;;14.77;68.07;99073.06;4136598;28;20205;-55
2022/05/18 03:26:10;;;;;;;1.25;1.20;;;;;;;14.76;68.15;99070.59;4140284;28;20573;-55
2022/05/18 03:28:11;;;;;;;1.60;1.50;;;;;;;14.75;68.46;99069.75;4132812;28;20206;-56
2022/05/18 03:30:14;;;;;;;2.67;1.20;;;;;;;14.77;68.21;99070.31;4134709;28;20206;-55
2022/05/18 03:32:15;;;;;;;3.05;1.58;;;;;;;14.80;68.05;99071.72;4140566;28;20259;-56
2022/05/18 03:34:17;;;;;;;2.47;1.42;;;;;;;14.78;67.74;99074.75;4135754;28;20210;-55
2022/05/18 03:36:19;;;;;;;1.08;1.05;;;;;;;14.77;68.07;99077.75;4139180;28;20221;-56
2022/05/18 03:38:22;;;;;;;1.50;1.40;;;;;;;14.76;68.28;99082.41;4139887;28;20715;-56
2022/05/18 03:40:23;;;;;;;1.05;1.00;;;;;;;14.76;68.33;99081.63;4139682;28;20241;-54
2022/05/18 03:42:26;;;;;;;0.90;0.90;;;;;;;14.75;68.35;99086.28;4116853;28;20210;-54
2022/05/18 03:44:28;;;;;;;1.48;1.27;;;;;;;14.73;68.32;99088.47;4141094;28;20219;-56
2022/05/18 03:46:30;;;;;;;0.93;0.90;;;;;;;14.72;68.42;99092.31;4136279;28;20210;-55
2022/05/18 03:48:32;;;;;;;1.80;1.13;;;;;;;14.69;68.31;99090.09;4134565;28;20463;-54
2022/05/18 03:50:37;;;;;;;1.05;0.95;;;;;;;14.68;68.45;99088.44;4135910;28;20201;-54
2022/05/18 03:52:38;;;;;;;1.10;1.02;;;;;;;14.67;67.97;99092.28;4132933;28;20251;-54
2022/05/18 03:54:40;;;;;;;1.50;1.40;;;;;;;14.65;67.97;99086.22;4141394;28;20702;-55
2022/05/18 03:56:42;;;;;;;1.40;1.30;;;;;;;14.65;68.35;99090.88;4136204;28;20237;-55
2022/05/18 03:58:44;;;;;;;1.30;1.20;;;;;;;14.66;68.47;99092.53;4136569;28;20217;-54
2022/05/18 04:00:48;;;;;;;1.20;1.10;;;;;;;14.65;67.92;99091.72;4133407;28;20568;-55
2022/05/18 04:02:49;;;;;;;1.67;1.13;;;;;;;14.65;68.20;99096.38;4132296;28;20688;-56
2022/05/18 04:04:51;;;;;;;0.88;0.88;;;;;;;14.67;68.02;99088.69;4134471;28;20267;-56
2022/05/18 04:06:53;;;;;;;2.15;1.00;;;;;;;14.67;68.12;99095.03;4136033;28;20201;-54
2022/05/18 04:08:55;;;;;;;1.05;1.02;;;;;;;14.66;67.89;99093.38;4138542;28;20248;-54
2022/05/18 04:10:57;;;;;;;1.85;1.63;;;;;;;14.62;67.79;99086.72;4135356;28;20260;-56
2022/05/18 04:12:59;;;;;;;1.25;1.10;;;;;;;14.62;67.79;99092.22;4140457;28;20241;-56
2022/05/18 04:15:02;;;;;;;0.98;0.98;;;;;;;14.61;68.22;99087.81;4135141;28;20205;-55
2022/05/18 04:17:04;;;;;;;2.85;1.23;;;;;;;14.61;68.33;99089.72;4142885;28;20229;-55
2022/05/18 04:19:09;;;;;;;0.93;0.90;;;;;;;14.59;68.07;99098.28;4145272;28;20248;-55
2022/05/18 04:21:10;;;;;;;1.73;1.58;;;;;;;14.57;68.43;99083.09;4139150;28;20237;-55
2022/05/18 04:23:13;;;;;;;1.90;1.33;;;;;;;14.60;68.38;99088.06;4138516;28;20201;-56
2022/05/18 04:25:18;;;;;;;0.90;0.90;;;;;;;14.63;68.55;99093.88;4138404;28;20221;-55
2022/05/18 04:27:20;;;;;;;1.10;1.10;;;;;;;14.66;68.29;99089.78;4137759;28;20245;-54
2022/05/18 04:29:22;;;;;;;0.90;0.90;;;;;;;14.65;68.43;99093.63;4139610;28;20210;-53
2022/05/18 04:31:24;;;;;;;1.48;1.35;;;;;;;14.68;68.38;99101.34;4140669;28;20225;-56
2022/05/18 04:33:25;;;;;;;1.42;1.33;;;;;;;14.69;68.45;99101.09;4137786;28;20212;-55
2022/05/18 04:35:28;;;;;;;1.45;1.23;;;;;;;14.71;68.42;99101.66;4152063;28;20690;-56
2022/05/18 04:37:30;;;;;;;3.90;1.25;;;;;;;14.72;68.47;99108.00;4136595;28;20296;-56
2022/05/18 04:39:32;;;;;;;1.30;1.20;;;;;;;14.73;68.59;99104.16;4133080;28;20243;-53
2022/05/18 04:41:33;;;;;;;2.08;1.27;;;;;;;14.68;68.73;99106.88;4151904;28;20630;-55
2022/05/18 04:43:35;;;;;;;1.60;1.50;;;;;;;14.73;68.48;99104.16;4133899;28;20198;-54
2022/05/18 04:45:44;;;;;;;5.53;1.58;;;;;;;14.65;69.72;99102.75;4137259;28;20273;-52
2022/05/18 04:47:46;;;;;;;1.48;1.38;;;;;;;14.57;69.90;99100.44;4137298;28;20251;-54
2022/05/18 04:49:52;;;;;;;1.30;1.20;;;;;;;14.53;70.09;99098.47;4137319;28;20214;-54
2022/05/18 04:51:53;;;;;;;3.83;1.25;;;;;;;14.50;70.54;99099.00;4135630;28;20273;-54
2022/05/18 04:54:00;;;;;;;1.30;1.20;;;;;;;14.58;69.97;99102.09;4136777;28;20310;-54
2022/05/18 04:56:03;;;;;;;1.45;1.35;;;;;;;14.69;69.64;99103.84;4134643;28;20252;-54
2022/05/18 04:58:05;;;;;;;1.25;1.10;;;;;;;14.73;69.50;99106.91;4141638;28;20312;-55
2022/05/18 05:00:09;;;;;;;1.77;1.42;;;;;;;14.85;69.53;99113.94;4151691;28;20205;-57
2022/05/18 05:02:13;;;;;;;1.52;1.42;;;;;;;14.83;69.34;99110.59;4142319;28;20757;-54
2022/05/18 05:04:15;;;;;;;1.17;1.05;;;;;;;14.86;69.29;99112.00;4140773;28;20209;-56
2022/05/18 05:06:16;;;;;;;0.85;0.82;;;;;;;14.91;69.17;99121.13;4137657;28;20249;-54
2022/05/18 05:08:19;;;;;;;1.30;1.15;;;;;;;14.98;68.73;99119.00;4143110;28;20275;-54
2022/05/18 05:10:21;;;;;;;1.15;1.05;;;;;;;15.04;68.68;99120.69;4152691;28;20251;-54
2022/05/18 05:12:26;;;;;;;1.05;1.05;;;;;;;15.13;68.50;99127.38;4140669;28;20861;-56
2022/05/18 05:14:33;;;;;;;0.80;0.80;;;;;;;15.20;68.35;99128.00;4136269;28;20209;-56
2022/05/18 05:16:34;;;;;;;1.10;1.00;;;;;;;15.28;68.02;99130.25;4138552;28;20304;-54
2022/05/18 05:18:37;;;;;;;1.13;1.00;;;;;;;15.36;67.79;99131.72;4138010;28;20292;-54
2022/05/18 05:20:39;;;;;;;1.10;1.00;;;;;;;15.58;67.44;99135.16;4136595;28;20546;-54
2022/05/18 05:22:41;;;;;;;1.20;1.00;;;;;;;15.57;67.43;99134.31;4135086;28;20244;-54
2022/05/18 05:24:43;;;;;;;1.02;0.93;;;;;;;15.62;67.33;99137.09;4134885;28;20217;-54
2022/05/18 05:26:45;;;;;;;1.70;1.20;;;;;;;15.66;67.52;99132.72;4138902;28;20347;-54
2022/05/18 05:28:46;;;;;;;2.78;1.63;;;;;;;15.78;69.50;99138.88;4135756;28;20335;-55
2022/05/18 05:30:48;;;;;;;1.30;1.00;;;;;;;16.01;69.79;99140.34;4135898;28;20240;-54
2022/05/18 05:32:50;;;;;;;2.13;1.30;;;;;;;16.12;69.09;99131.84;4134067;28;20214;-55
2022/05/18 05:34:53;;;;;;;1.67;1.40;;;;;;;16.39;68.79;99140.81;4144729;28;20779;-56
2022/05/18 05:36:54;;;;;;;1.55;1.45;;;;;;;16.60;67.56;99145.25;4144554;28;20249;-54
2022/05/18 05:38:57;;;;;;;1.85;1.25;;;;;;;16.83;66.68;99150.25;4138465;28;20215;-54
2022/05/18 05:41:01;;;;;;;1.42;1.33;;;;;;;16.86;66.65;99140.59;4140244;28;20222;-54
2022/05/18 05:43:08;;;;;;;1.50;1.40;;;;;;;17.02;66.79;99143.94;4140205;28;20279;-54
2022/05/18 05:45:10;;;;;;;1.48;1.20;;;;;;;17.19;65.74;99144.47;4138505;28;20634;-54
2022/05/18 05:47:12;;;;;;;1.35;1.30;;;;;;;17.37;65.49;99140.34;4139743;28;20252;-54
2022/05/18 05:49:13;;;;;;;1.65;1.10;;;;;;;17.49;64.40;99132.56;4143620;28;20201;-54
2022/05/18 05:51:16;;;;;;;1.27;1.10;;;;;;;17.50;64.63;99139.75;4127894;28;20296;-53
2022/05/18 05:53:19;;;;;;;1.50;1.23;;;;;;;17.70;64.59;99131.41;4143239;28;20206;-53
2022/05/18 05:55:20;;;;;;;1.65;1.00;;;;;;;17.82;63.84;99138.31;4141277;28;20209;-54
2022/05/18 05:57:23;;;;;;;0.90;0.90;;;;;;;17.91;63.48;99130.28;4141170;28;20248;-54
2022/05/18 05:59:25;;;;;;;0.80;0.80;;;;;;;18.08;63.17;99136.28;4140677;28;20730;-53
2022/05/18 06:01:33;;;;;;;3.55;1.13;;;;;;;18.18;63.46;99141.78;4142924;28;20741;-54
2022/05/18 06:03:36;;;;;;;5.30;1.00;;;;;;;18.23;62.88;99138.97;4138292;28;20685;-53
2022/05/18 06:05:42;;;;;;;1.20;0.98;;;;;;;18.36;62.76;99138.38;4139441;28;20224;-54
2022/05/18 06:07:43;;;;;;;1.35;1.13;;;;;;;18.46;63.11;99132.81;4139387;28;20240;-53
2022/05/18 06:09:45;;;;;;;1.23;1.10;;;;;;;18.60;62.50;99131.06;4154810;28;20201;-52
2022/05/18 06:11:48;;;;;;;1.55;1.25;;;;;;;18.72;62.75;99137.91;4136941;28;20245;-54
2022/05/18 06:13:51;;;;;;;0.88;0.88;;;;;;;18.87;62.63;99139.75;4140274;28;20242;-56
2022/05/18 06:15:53;;;;;;;1.27;1.13;;;;;;;18.98;62.53;99146.88;4138864;28;20552;-54
2022/05/18 06:17:55;;;;;;;1.20;1.10;;;;;;;19.05;61.94;99139.06;4141807;28;20260;-54
2022/05/18 06:19:57;;;;;;;1.15;1.00;;;;;;;19.20;61.91;99138.97;4125258;28;20198;-54
2022/05/18 06:21:58;;;;;;;1.30;1.10;;;;;;;19.25;61.81;99141.72;4141596;28;20670;-54
2022/05/18 06:24:00;;;;;;;1.40;0.90;;;;;;;19.41;61.63;99137.66;4138123;28;20691;-55
2022/05/18 06:26:03;;;;;;;1.63;1.00;;;;;;;19.55;61.68;99142.25;4136760;28;20280;-54
2022/05/18 06:28:09;;;;;;;1.50;1.40;;;;;;;19.55;61.49;99141.41;4138333;28;20214;-54
2022/05/18 06:30:13;;;;;;;0.90;0.90;;;;;;;19.64;61.16;99145.22;4142635;28;20209;-54
2022/05/18 06:32:15;;;;;;;0.90;0.85;;;;;;;19.77;61.65;99145.34;4137909;28;20222;-54
2022/05/18 06:34:17;;;;;;;1.30;1.20;;;;;;;19.86;61.16;99151.09;4137139;28;20205;-54
2022/05/18 06:36:19;;;;;;;1.30;1.20;;;;;;;20.04;60.89;99153.13;4141201;28;20208;-54
2022/05/18 06:38:20;;;;;;;0.90;0.90;;;;;;;20.14;60.74;99155.78;4140086;28;20216;-55
2022/05/18 06:41:21;;;;;;;2.10;1.20;;;;;;;20.05;59.65;99154.78;4132606;28;20224;-55
2022/05/18 06:42:44;;;;;;;1.27;0.98;;;;;;;20.03;60.44;99151.44;4137559;28;20581;-53
2022/05/18 06:44:46;;;;;;;1.85;1.10;;;;;;;20.27;60.35;99155.06;4151241;28;20239;-51
2022/05/18 06:46:52;;;;;;;1.25;1.23;;;;;;;20.50;60.35;99152.25;4137136;28;20370;-52
2022/05/18 06:48:55;;;;;;;1.30;1.20;;;;;;;20.66;60.52;99147.31;4135230;28;20208;-52
2022/05/18 06:50:57;;;;;;;1.55;1.30;;;;;;;20.85;60.33;99153.72;4143775;28;20280;-52
2022/05/18 06:52:59;;;;;;;1.65;1.20;;;;;;;21.08;59.00;99156.44;4152225;28;20227;-51
2022/05/18 06:55:01;;;;;;;1.52;1.27;;;;;;;21.15;58.97;99150.47;4139691;28;20210;-51
2022/05/18 06:57:04;;;;;;;0.73;0.73;;;;;;;21.31;58.99;99151.91;4134982;28;20233;-51
2022/05/18 06:59:07;;;;;;;1.20;1.08;;;;;;;21.44;58.49;99153.91;4132408;28;20652;-53
2022/05/18 07:01:09;;;;;;;0.80;0.80;;;;;;;21.44;58.27;99148.34;4142077;28;20616;-55
2022/05/18 07:03:11;;;;;;;1.40;1.20;;;;;;;21.20;58.58;99153.19;4134352;28;20229;-54
2022/05/18 07:05:13;;;;;;;1.27;1.02;;;;;;;21.09;59.14;99146.13;4135975;28;20213;-52
2022/05/18 07:07:14;;;;;;;1.42;1.20;;;;;;;21.02;58.63;99156.81;4134904;28;20259;-52
2022/05/18 07:09:19;;;;;;;1.30;1.20;;;;;;;21.14;59.16;99162.75;4133766;28;20208;-52
2022/05/18 07:11:25;;;;;;;1.65;1.55;;;;;;;21.31;58.96;99149.13;4131913;28;20294;-53
2022/05/18 07:13:26;;;;;;;1.67;1.17;;;;;;;21.45;59.30;99152.78;4131871;28;21628;-51
2022/05/18 07:15:28;;;;;;;1.27;1.17;;;;;;;21.71;58.70;99165.16;4134391;28;20205;-51
2022/05/18 07:17:30;;;;;;;1.30;1.20;;;;;;;21.78;58.01;99157.22;4115980;28;20225;-53
2022/05/18 07:19:52;;;;;;;0.75;0.75;;;;;;;22.06;58.04;99161.69;4134756;28;20240;-53
2022/05/18 07:21:54;;;;;;;1.42;1.00;;;;;;;22.47;57.58;99168.13;4131282;28;20722;-53
2022/05/18 07:23:55;;;;;;;1.10;1.00;;;;;;;22.59;56.98;99160.06;4149237;28;20231;-51
2022/05/18 07:26:00;;;;;;;1.00;0.90;;;;;;;22.79;55.77;99165.19;4116729;28;20228;-53
2022/05/18 07:28:02;;;;;;;2.67;1.00;;;;;;;22.90;56.05;99166.63;4136998;28;20205;-51
2022/05/18 07:30:24;;;;;;;0.98;0.90;;;;;;;22.91;55.65;99162.69;4135147;28;20201;-51
2022/05/18 07:32:27;;;;;;;1.55;1.45;;;;;;;23.11;55.38;99162.19;4135088;28;20220;-52
2022/05/18 07:34:30;;;;;;;1.20;1.10;;;;;;;23.35;55.38;99168.31;4138320;28;20259;-51
2022/05/18 07:36:31;;;;;;;1.30;1.20;;;;;;;23.30;54.58;99169.28;4131153;28;20871;-52
2022/05/18 07:38:34;;;;;;;1.02;0.80;;;;;;;23.31;54.62;99164.53;4138413;28;20205;-52
2022/05/18 07:40:40;;;;;;;1.63;1.38;;;;;;;23.84;55.94;99161.44;4139798;28;20201;-54
2022/05/18 07:42:42;;;;;;;0.88;0.88;;;;;;;24.09;53.54;99163.59;4138574;28;20227;-51
2022/05/18 07:44:44;;;;;;;1.45;0.93;;;;;;;24.34;53.78;99167.63;4137573;28;20208;-51
2022/05/18 07:46:45;;;;;;;1.17;1.08;;;;;;;24.26;52.61;99172.03;4134647;28;20224;-51
2022/05/18 07:48:47;;;;;;;1.20;1.05;;;;;;;23.96;53.14;99162.84;4136655;28;20213;-53
2022/05/18 07:50:49;;;;;;;0.88;0.88;;;;;;;24.39;53.33;99168.28;4137944;28;20649;-54
2022/05/18 07:52:57;;;;;;;1.10;0.80;;;;;;;24.55;53.30;99166.72;4134470;28;20667;-51
2022/05/18 07:54:58;;;;;;;1.15;0.95;;;;;;;24.60;52.77;99169.38;4135765;28;20201;-53
2022/05/18 07:57:01;;;;;;;1.25;1.10;;;;;;;24.93;53.09;99167.78;4137733;28;20243;-52
2022/05/18 07:59:04;;;;;;;0.75;0.75;;;;;;;24.98;51.92;99164.00;4131081;28;20217;-52
2022/05/18 08:01:08;;;;;;;1.00;0.90;;;;;;;24.68;50.73;99171.41;4132530;28;20235;-51
2022/05/18 08:03:09;;;;;;;1.50;1.40;;;;;;;25.11;52.10;99163.88;4134900;28;20270;-51
2022/05/18 08:05:12;;;;;;;1.10;0.90;;;;;;;24.87;50.91;99163.50;4135572;28;20308;-53
2022/05/18 08:07:13;;;;;;;0.70;0.70;;;;;;;25.15;51.43;99164.03;4150862;28;20201;-51
2022/05/18 08:09:16;;;;;;;0.90;0.77;;;;;;;25.52;51.46;99169.81;4136055;28;20678;-53
2022/05/18 08:15:58;;;;;;;1.75;1.00;;;;;;;25.66;50.05;99159.22;4137196;28;20730;-51
2022/05/18 08:17:59;;;;;;;5.18;0.80;;;;;;;26.22;49.15;99158.94;4134138;28;20218;-51
2022/05/18 08:20:06;;;;;;;1.48;1.20;;;;;;;26.13;47.88;99160.94;4135629;28;20235;-52
2022/05/18 08:22:08;;;;;;;0.95;0.80;;;;;;;25.85;47.59;99156.88;4134891;28;20282;-51
2022/05/18 08:24:10;;;;;;;1.02;1.02;;;;;;;25.92;47.91;99162.84;4134197;28;20208;-51
2022/05/18 08:26:12;;;;;;;0.93;0.90;;;;;;;25.88;46.41;99153.44;4136882;28;20208;-52
2022/05/18 08:28:15;;;;;;;1.42;1.33;;;;;;;26.25;47.65;99161.06;4135294;28;20236;-53
2022/05/18 08:30:21;;;;;;;0.88;0.80;;;;;;;26.06;45.70;99155.03;4135449;28;20216;-51
2022/05/18 08:32:23;;;;;;;1.52;0.63;;;;;;;26.12;45.68;99156.50;4138962;28;20657;-51
2022/05/18 08:34:24;;;;;;;3.22;0.70;;;;;;;25.80;45.72;99154.25;4132343;28;20225;-51
2022/05/18 08:36:27;;;;;;;1.73;1.00;;;;;;;25.50;46.17;99160.91;4133811;28;20211;-51
2022/05/18 08:38:29;;;;;;;0.73;0.73;;;;;;;25.65;46.35;99151.97;4140397;28;20276;-53
2022/05/18 08:40:39;;;;;;;1.00;0.68;;;;;;;25.87;46.79;99151.75;4134739;28;20702;-52
2022/05/18 08:42:41;;;;;;;0.90;0.90;;;;;;;26.39;46.14;99155.25;4147601;28;20615;-51
2022/05/18 08:44:44;;;;;;;0.77;0.75;;;;;;;26.79;47.01;99154.53;4131686;28;20217;-51
2022/05/18 08:47:09;;;;;;;0.75;0.75;;;;;;;27.07;46.46;99143.59;4138410;28;20205;-51
2022/05/18 08:49:20;;;;;;;1.13;0.80;;;;;;;27.35;44.11;99150.34;4132308;28;20213;-51
2022/05/18 08:51:53;;;;;;;2.47;0.90;;;;;;;27.33;44.29;99147.06;4133044;28;20290;-51
2022/05/18 08:54:16;;;;;;;0.93;0.88;;;;;;;26.62;43.90;99149.03;4117551;28;20268;-51
2022/05/18 08:56:23;;;;;;;1.67;0.80;;;;;;;26.83;45.15;99155.50;4147606;28;20201;-53
2022/05/18 08:58:28;;;;;;;1.55;0.77;;;;;;;27.09;44.17;99158.13;4135086;28;20584;-51
2022/05/18 09:00:36;;;;;;;0.70;0.70;;;;;;;27.33;44.29;99153.47;4134128;28;20211;-51
2022/05/18 09:02:39;;;;;;;0.68;0.63;;;;;;;27.55;44.17;99150.31;4130287;28;20231;-52
2022/05/18 09:04:57;;;;;;;0.55;0.55;;;;;;;27.99;43.03;99154.34;4140616;28;20306;-52
2022/05/18 09:07:23;;;;;;;0.80;0.80;;;;;;;27.80;42.04;99152.06;4137231;28;20802;-51
2022/05/18 09:12:04;;;;;;;0.88;0.88;;;;;;;28.07;42.27;99147.81;4139849;28;20256;-53
2022/05/18 09:14:08;;;;;;;0.60;0.60;;;;;;;27.85;42.16;99153.84;4139764;28;20240;-51
2022/05/18 09:16:30;;;;;;;0.60;0.60;;;;;;;27.56;41.26;99156.75;4138080;28;20622;-51
2022/05/18 09:18:52;;;;;;;0.50;0.50;;;;;;;27.77;43.59;99152.78;4149698;28;20660;-52
2022/05/18 09:21:26;;;;;;;1.65;1.30;;;;;;;28.34;43.01;99159.22;4139443;28;20713;-52
2022/05/18 09:23:46;;;;;;;0.98;0.77;;;;;;;28.53;42.99;99158.69;4118772;28;20287;-51
2022/05/18 09:26:10;;;;;;;0.73;0.70;;;;;;;28.70;43.02;99153.63;4138459;28;20212;-51
2022/05/18 09:28:18;;;;;;;2.03;0.75;;;;;;;27.92;40.85;99151.28;4132840;28;20205;-51
2022/05/18 09:30:27;;;;;;;0.70;0.70;;;;;;;27.74;40.79;99150.63;4151482;28;20211;-51
2022/05/18 09:32:51;;;;;;;1.02;0.77;;;;;;;27.56;40.65;99151.97;4136332;28;20206;-52
2022/05/18 09:35:12;;;;;;;0.80;0.80;;;;;;;27.54;40.98;99153.47;4135005;28;20197;-51
2022/05/18 09:37:31;;;;;;;0.95;0.95;;;;;;;27.36;41.86;99141.56;4134030;28;20203;-52
2022/05/18 09:39:37;;;;;;;1.00;0.70;;;;;;;28.03;41.86;99149.66;4151749;28;20226;-51
2022/05/18 09:41:45;;;;;;;0.75;0.57;;;;;;;28.24;41.12;99142.78;4136538;28;20225;-51
2022/05/18 09:43:56;;;;;;;1.25;0.75;;;;;;;28.09;40.45;99137.84;4137131;28;20254;-51
2022/05/18 09:45:58;;;;;;;0.50;0.50;;;;;;;28.15;40.29;99135.59;4136237;28;20220;-51
2022/05/18 09:48:11;;;;;;;1.52;1.00;;;;;;;28.46;40.61;99136.72;4137058;28;20593;-52
2022/05/18 09:50:13;;;;;;;0.60;0.55;;;;;;;29.32;41.86;99131.44;4136576;28;20233;-51
2022/05/18 09:52:18;;;;;;;2.15;0.77;;;;;;;29.66;41.10;99130.03;4139933;28;20267;-51
2022/05/18 09:54:19;;;;;;;1.00;0.80;;;;;;;29.82;40.91;99128.91;4136988;28;20205;-51
2022/05/18 09:56:28;;;;;;;0.68;0.68;;;;;;;29.35;38.80;99122.25;4141601;28;21524;-51
2022/05/18 09:58:37;;;;;;;0.50;0.50;;;;;;;29.00;39.32;99118.38;4139456;28;20220;-51